Time;durP1;ratioP1;P1;durP2;ratioP2;P2;SDS_P1;SDS_P2;PMS_P1;PMS_P2;Temp;Humidity;BMP_temperature;BMP_pressure;BME280_temperature;BME280_humidity;BME280_pressure;Samples;Min_cycle;Max_cycle;Signal;HPM_P1;HPM_P2
2021/11/06 00:02:35;;;;;;;36.60;11.38;;;;;;;13.48;89.46;97981.53;4984892;28;20042;-81
2021/11/06 00:05:32;;;;;;;37.60;11.52;;;;;;;12.98;89.44;97909.66;4986684;28;20042;-80
2021/11/06 00:07:58;;;;;;;44.20;12.68;;;;;;;13.27;90.97;97989.22;5000540;28;20422;-80
2021/11/06 00:10:27;;;;;;;36.92;11.90;;;;;;;13.33;90.99;98004.94;4991503;28;20038;-80
2021/11/06 00:12:53;;;;;;;40.45;12.27;;;;;;;13.33;91.53;98018.38;4992653;28;20113;-80
2021/11/06 00:15:18;;;;;;;34.30;10.70;;;;;;;13.24;91.63;98010.91;4998739;28;20118;-79
2021/11/06 00:17:44;;;;;;;36.30;11.52;;;;;;;13.31;90.71;98011.38;4986594;28;20109;-81
2021/11/06 00:20:12;;;;;;;43.80;11.73;;;;;;;13.28;90.63;98017.81;4994587;28;20128;-81
2021/11/06 00:22:38;;;;;;;29.38;8.75;;;;;;;13.11;91.33;98014.47;5007437;28;20030;-80
2021/11/06 00:25:05;;;;;;;28.75;9.75;;;;;;;13.01;92.31;98006.16;4991366;28;20098;-81
2021/11/06 00:27:31;;;;;;;41.50;9.27;;;;;;;13.15;92.44;98019.56;5002890;28;20037;-79
2021/11/06 00:29:57;;;;;;;35.75;9.10;;;;;;;13.13;92.09;98012.56;5000153;28;20037;-81
2021/11/06 00:32:23;;;;;;;31.17;9.10;;;;;;;13.07;92.42;98009.28;5034605;28;20491;-80
2021/11/06 00:34:48;;;;;;;28.75;9.23;;;;;;;13.10;92.56;98010.94;5038875;28;20127;-80
2021/11/06 00:37:14;;;;;;;26.95;9.88;;;;;;;13.01;92.88;97998.09;5030224;28;20132;-80
2021/11/06 00:39:39;;;;;;;32.40;9.52;;;;;;;13.18;91.85;98014.00;5021868;28;20034;-81
2021/11/06 00:42:05;;;;;;;29.70;9.20;;;;;;;13.17;91.59;98004.19;5026248;28;20035;-81
2021/11/06 00:44:31;;;;;;;28.90;8.32;;;;;;;13.23;91.39;98006.50;5063416;28;20025;-80
2021/11/06 00:46:57;;;;;;;28.15;8.80;;;;;;;13.31;91.19;98012.25;5038755;28;20108;-81
2021/11/06 00:49:23;;;;;;;36.13;9.40;;;;;;;13.29;91.45;98013.31;5034327;28;20412;-80
2021/11/06 00:51:49;;;;;;;41.63;8.95;;;;;;;13.27;91.62;98016.09;5042402;28;20455;-79
2021/11/06 00:54:15;;;;;;;37.22;10.35;;;;;;;13.19;91.53;98010.34;5038578;28;20020;-80
2021/11/06 00:56:40;;;;;;;35.28;10.32;;;;;;;13.10;92.59;98007.41;5038049;28;20088;-80
2021/11/06 00:59:06;;;;;;;33.13;9.82;;;;;;;13.01;92.97;98008.81;5034357;28;20033;-79
2021/11/06 01:01:32;;;;;;;42.38;10.23;;;;;;;13.01;93.77;98022.25;5033626;28;20055;-80
2021/11/06 01:03:58;;;;;;;33.80;10.05;;;;;;;13.07;93.69;98040.66;5034042;28;20116;-79
2021/11/06 01:06:24;;;;;;;29.65;10.40;;;;;;;13.09;93.50;98035.22;5030068;28;20113;-80
2021/11/06 01:08:50;;;;;;;45.08;11.20;;;;;;;12.97;94.12;98039.50;5046011;28;20024;-80
2021/11/06 01:11:16;;;;;;;28.58;10.77;;;;;;;12.96;94.44;98040.47;5042219;28;20121;-79
2021/11/06 01:13:42;;;;;;;40.08;13.02;;;;;;;12.98;94.37;98038.56;5042047;28;20061;-81
2021/11/06 01:16:10;;;;;;;32.65;11.65;;;;;;;12.95;94.49;98025.34;5029894;28;20035;-81
2021/11/06 01:18:36;;;;;;;36.25;11.68;;;;;;;13.10;93.91;98036.94;5042412;28;20488;-80
2021/11/06 01:21:02;;;;;;;30.23;11.05;;;;;;;13.19;93.74;98037.22;5037666;28;20033;-80
2021/11/06 01:23:27;;;;;;;29.13;11.30;;;;;;;13.13;93.73;98034.94;5042309;28;20082;-81
2021/11/06 01:25:53;;;;;;;44.35;12.35;;;;;;;13.14;93.43;98027.69;5037375;28;20499;-80
2021/11/06 01:28:19;;;;;;;36.05;10.68;;;;;;;13.28;92.43;98039.31;5037619;28;20028;-81
2021/11/06 01:30:44;;;;;;;31.95;10.68;;;;;;;13.27;92.49;98032.19;5031541;28;20029;-80
2021/11/06 01:33:10;;;;;;;31.52;10.80;;;;;;;13.31;92.63;98049.84;5031595;28;20028;-80
2021/11/06 01:35:36;;;;;;;31.63;10.43;;;;;;;13.32;92.59;98050.72;5021082;28;20503;-80
2021/11/06 01:38:02;;;;;;;30.70;10.63;;;;;;;13.33;92.58;98053.28;5033408;28;20028;-81
2021/11/06 01:40:28;;;;;;;33.03;11.07;;;;;;;13.32;92.23;98040.81;5041203;28;20086;-79
2021/11/06 01:42:54;;;;;;;43.60;13.48;;;;;;;13.32;92.68;98056.94;5033214;28;20036;-80
2021/11/06 01:45:21;;;;;;;39.05;13.05;;;;;;;13.37;92.13;98062.03;5033326;28;20487;-80
2021/11/06 01:47:47;;;;;;;33.42;13.07;;;;;;;13.28;92.98;98058.13;5052510;28;20029;-80
2021/11/06 01:50:14;;;;;;;34.38;12.43;;;;;;;13.25;92.55;98054.75;5026882;28;20032;-79
2021/11/06 01:52:40;;;;;;;45.60;12.82;;;;;;;13.21;93.23;98064.84;5045634;28;20407;-80
2021/11/06 01:55:07;;;;;;;37.47;12.85;;;;;;;13.13;92.91;98061.78;5025019;28;20039;-81
2021/11/06 01:57:33;;;;;;;33.33;11.32;;;;;;;13.05;93.83;98061.38;5050822;28;20056;-79
2021/11/06 01:59:59;;;;;;;44.50;11.43;;;;;;;13.01;94.14;98073.28;5024440;28;20029;-80
2021/11/06 02:02:25;;;;;;;36.35;11.05;;;;;;;12.87;94.93;98078.63;5037015;28;20476;-81
2021/11/06 02:04:51;;;;;;;33.78;10.43;;;;;;;12.90;94.99;98086.50;5049309;28;20043;-73
2021/11/06 02:07:16;;;;;;;33.55;10.55;;;;;;;12.88;94.74;98077.69;5037171;28;20033;-79
2021/11/06 02:09:42;;;;;;;30.35;10.88;;;;;;;12.81;95.46;98087.06;5028862;28;20040;-80
2021/11/06 02:12:09;;;;;;;30.05;9.80;;;;;;;12.77;95.58;98072.09;5058309;28;20036;-80
2021/11/06 02:14:35;;;;;;;26.70;10.27;;;;;;;12.61;97.03;98068.66;5041127;28;20037;-81
2021/11/06 02:17:00;;;;;;;32.80;11.82;;;;;;;12.70;96.66;98070.78;5057968;28;20029;-80
2021/11/06 02:19:28;;;;;;;28.05;10.48;;;;;;;12.77;96.64;98077.47;5032757;28;20021;-80
2021/11/06 02:21:55;;;;;;;30.45;10.43;;;;;;;12.83;96.07;98069.03;5028698;28;20037;-80
2021/11/06 02:24:21;;;;;;;45.17;10.50;;;;;;;12.78;95.96;98068.47;5045385;28;20021;-80
2021/11/06 02:26:47;;;;;;;32.83;9.95;;;;;;;12.79;96.04;98070.22;5045364;28;20040;-79
2021/11/06 02:29:13;;;;;;;29.90;10.57;;;;;;;12.80;96.56;98069.22;5029151;28;20028;-79
2021/11/06 02:31:39;;;;;;;28.98;10.18;;;;;;;12.68;97.01;98060.13;5046144;28;20503;-80
2021/11/06 02:34:06;;;;;;;23.13;10.18;;;;;;;12.69;96.75;98061.00;5048703;28;20037;-80
2021/11/06 02:36:31;;;;;;;24.25;10.07;;;;;;;12.74;97.71;98074.97;5018553;28;20029;-80
2021/11/06 02:38:57;;;;;;;28.17;11.23;;;;;;;12.71;97.76;98075.19;5047562;28;20021;-80
2021/11/06 02:41:23;;;;;;;27.20;10.63;;;;;;;12.66;97.75;98071.94;5025027;28;20072;-80
2021/11/06 02:43:49;;;;;;;29.00;8.77;;;;;;;12.63;98.04;98069.44;5054333;28;20462;-80
2021/11/06 02:46:15;;;;;;;36.70;10.93;;;;;;;12.60;98.20;98083.03;5023939;28;20144;-79
2021/11/06 02:48:40;;;;;;;43.45;10.35;;;;;;;12.63;98.65;98082.84;5028075;28;20116;-80
2021/11/06 02:51:06;;;;;;;30.58;10.35;;;;;;;12.70;98.19;98085.06;5033850;28;20032;-79
2021/11/06 02:53:32;;;;;;;29.15;10.20;;;;;;;12.73;98.00;98102.81;5061545;28;20029;-79
2021/11/06 02:55:57;;;;;;;30.55;11.00;;;;;;;12.74;97.99;98108.06;5047280;28;20029;-80
2021/11/06 02:58:23;;;;;;;33.70;10.73;;;;;;;12.79;97.72;98102.44;5057026;28;20040;-80
2021/11/06 03:00:48;;;;;;;30.20;10.40;;;;;;;12.75;97.61;98101.75;5027467;28;20516;-79
2021/11/06 03:03:23;;;;;;;35.00;9.93;;;;;;;12.80;97.74;98123.78;5027411;28;20041;-79
2021/11/06 03:05:49;;;;;;;27.52;9.85;;;;;;;12.69;97.49;98126.28;5045720;28;20373;-79
2021/11/06 03:08:14;;;;;;;38.08;10.65;;;;;;;12.65;97.81;98129.22;5038770;28;20044;-80
2021/11/06 03:10:40;;;;;;;31.42;10.52;;;;;;;12.65;98.36;98148.88;5025513;28;20030;-80
2021/11/06 03:13:05;;;;;;;28.60;11.20;;;;;;;12.48;99.20;98138.31;5036075;28;20036;-80
2021/11/06 03:15:31;;;;;;;40.83;11.38;;;;;;;12.43;99.78;98138.59;5044837;28;20029;-80
2021/11/06 03:17:57;;;;;;;33.20;11.88;;;;;;;12.41;100.00;98148.56;5032814;28;20411;-80
2021/11/06 03:20:23;;;;;;;30.15;12.20;;;;;;;12.44;100.00;98148.38;5040551;28;20390;-80
2021/11/06 03:22:51;;;;;;;36.95;11.73;;;;;;;12.36;100.00;98134.56;5024350;28;20034;-80
2021/11/06 03:25:17;;;;;;;27.58;10.98;;;;;;;12.35;100.00;98137.31;5035702;28;20043;-80
2021/11/06 03:27:43;;;;;;;35.85;10.88;;;;;;;12.41;100.00;98137.81;5037845;28;20120;-80
2021/11/06 03:30:11;;;;;;;32.20;10.52;;;;;;;12.37;100.00;98130.91;5032559;28;20112;-80
2021/11/06 03:32:37;;;;;;;30.98;10.93;;;;;;;12.36;100.00;98139.94;5024577;28;20033;-80
2021/11/06 03:35:04;;;;;;;28.48;10.80;;;;;;;12.26;100.00;98122.66;5038143;28;20095;-79
2021/11/06 03:37:30;;;;;;;33.33;10.15;;;;;;;12.27;100.00;98119.03;5039270;28;20025;-80
2021/11/06 03:39:55;;;;;;;31.10;10.63;;;;;;;12.36;100.00;98126.50;5055618;28;20598;-80
2021/11/06 03:42:21;;;;;;;34.00;10.25;;;;;;;12.39;100.00;98122.78;5027130;28;20499;-80
2021/11/06 03:44:47;;;;;;;31.60;10.52;;;;;;;12.48;100.00;98130.28;5047580;28;20495;-80
2021/11/06 03:47:12;;;;;;;30.60;9.93;;;;;;;12.52;100.00;98139.00;5039633;28;20408;-79
2021/11/06 03:49:38;;;;;;;32.60;11.40;;;;;;;12.48;100.00;98119.53;5047619;28;20480;-79
2021/11/06 03:52:03;;;;;;;39.60;11.48;;;;;;;12.52;100.00;98135.34;5022699;28;20056;-80
2021/11/06 03:54:29;;;;;;;27.60;10.48;;;;;;;12.60;100.00;98136.72;5032243;28;20029;-80
2021/11/06 03:56:55;;;;;;;35.35;10.52;;;;;;;12.65;99.72;98126.56;5036036;28;20056;-81
2021/11/06 03:59:20;;;;;;;33.85;10.63;;;;;;;12.55;100.00;98128.94;5034300;28;20098;-81
2021/11/06 04:01:46;;;;;;;27.95;10.43;;;;;;;12.65;100.00;98123.88;5026586;28;20052;-81
2021/11/06 04:04:11;;;;;;;38.33;11.52;;;;;;;12.61;99.81;98119.66;5044951;28;20065;-81
2021/11/06 04:06:37;;;;;;;23.52;10.57;;;;;;;12.69;99.66;98122.72;5026788;28;20028;-81
2021/11/06 04:09:05;;;;;;;29.55;11.00;;;;;;;12.66;99.55;98123.78;5035369;28;20029;-81
2021/11/06 04:11:30;;;;;;;33.65;10.82;;;;;;;12.64;100.00;98132.91;5027622;28;20026;-79
2021/11/06 04:13:56;;;;;;;31.95;10.05;;;;;;;12.63;99.62;98128.47;5055036;28;20560;-81
2021/11/06 04:16:22;;;;;;;39.35;10.52;;;;;;;12.70;99.34;98138.75;5043320;28;20040;-79
2021/11/06 04:18:47;;;;;;;37.85;10.88;;;;;;;12.72;99.37;98135.97;5034753;28;20036;-80
2021/11/06 04:21:13;;;;;;;43.72;14.75;;;;;;;12.66;99.73;98152.44;5043125;28;20128;-80
2021/11/06 04:23:38;;;;;;;45.72;14.20;;;;;;;12.66;99.89;98149.75;5034627;28;20044;-80
2021/11/06 04:26:04;;;;;;;32.85;12.95;;;;;;;12.63;100.00;98149.94;5039842;28;20039;-80
2021/11/06 04:28:30;;;;;;;35.20;14.02;;;;;;;12.56;100.00;98151.25;5034219;28;20029;-80
2021/11/06 04:30:55;;;;;;;34.22;14.27;;;;;;;12.59;100.00;98151.94;5051330;28;20122;-80
2021/11/06 04:33:21;;;;;;;38.95;14.20;;;;;;;12.55;100.00;98145.03;5032833;28;20033;-82
2021/11/06 04:35:47;;;;;;;40.38;14.05;;;;;;;12.61;100.00;98143.81;5042872;28;20138;-81
2021/11/06 04:38:13;;;;;;;43.15;16.23;;;;;;;12.68;99.87;98145.16;5026165;28;20111;-80
2021/11/06 04:40:39;;;;;;;30.33;13.70;;;;;;;12.59;99.66;98132.28;5047398;28;20113;-80
2021/11/06 04:43:04;;;;;;;36.47;13.63;;;;;;;12.70;99.55;98135.22;5042316;28;20024;-81
2021/11/06 04:45:30;;;;;;;24.95;11.05;;;;;;;12.64;100.00;98132.91;5050977;28;20086;-80
2021/11/06 04:47:56;;;;;;;28.45;11.55;;;;;;;12.48;100.00;98123.09;5046678;28;20118;-79
2021/11/06 04:50:22;;;;;;;26.60;9.90;;;;;;;12.58;100.00;98136.78;5042748;28;20026;-79
2021/11/06 04:52:47;;;;;;;23.35;10.63;;;;;;;12.55;100.00;98144.19;5067393;28;20112;-81
2021/11/06 04:55:15;;;;;;;29.20;11.10;;;;;;;12.50;100.00;98148.00;5034665;28;20030;-80
2021/11/06 04:57:41;;;;;;;40.22;10.75;;;;;;;12.55;100.00;98157.63;5022607;28;20072;-80
2021/11/06 05:00:09;;;;;;;25.45;10.55;;;;;;;12.44;100.00;98155.56;5033519;28;20033;-80
2021/11/06 05:02:35;;;;;;;33.45;10.93;;;;;;;12.40;100.00;98152.19;5029667;28;20106;-80
2021/11/06 05:05:01;;;;;;;33.35;12.18;;;;;;;12.43;100.00;98157.38;5034118;28;20029;-79
2021/11/06 05:07:26;;;;;;;33.47;13.20;;;;;;;12.42;100.00;98182.50;5050595;28;20033;-80
2021/11/06 05:09:53;;;;;;;38.92;15.60;;;;;;;12.34;100.00;98167.78;5021108;28;20033;-80
2021/11/06 05:12:19;;;;;;;40.22;15.43;;;;;;;12.42;100.00;98170.88;5022204;28;20028;-80
2021/11/06 05:14:49;;;;;;;43.40;16.30;;;;;;;12.39;100.00;98163.03;5033323;28;20435;-81
2021/11/06 05:17:17;;;;;;;42.72;15.57;;;;;;;12.51;100.00;98178.41;5050567;28;20028;-81
2021/11/06 05:19:43;;;;;;;44.97;13.30;;;;;;;12.39;100.00;98174.63;5033737;28;20025;-81
2021/11/06 05:22:10;;;;;;;39.97;12.82;;;;;;;12.52;100.00;98190.84;5039245;28;20086;-81
2021/11/06 05:24:36;;;;;;;34.40;13.02;;;;;;;12.66;100.00;98198.94;5019458;28;20108;-80
2021/11/06 05:27:02;;;;;;;37.65;13.60;;;;;;;12.57;100.00;98179.84;5047918;28;20023;-81
2021/11/06 05:29:28;;;;;;;34.67;13.13;;;;;;;12.77;99.55;98209.03;5036976;28;20116;-81
2021/11/06 05:31:53;;;;;;;32.65;13.68;;;;;;;12.86;99.18;98216.53;5029284;28;20452;-81
2021/11/06 05:34:19;;;;;;;27.17;10.73;;;;;;;13.00;97.87;98220.13;5033599;28;20048;-79
2021/11/06 05:36:44;;;;;;;29.35;12.52;;;;;;;13.03;97.80;98214.56;5041778;28;20037;-80
2021/11/06 05:39:10;;;;;;;24.90;11.65;;;;;;;13.08;97.57;98222.34;5049839;28;20113;-81
2021/11/06 05:41:35;;;;;;;29.15;10.95;;;;;;;13.02;97.91;98212.81;5040510;28;20612;-80
2021/11/06 05:44:01;;;;;;;36.10;11.15;;;;;;;13.09;98.49;98224.09;5021101;28;20029;-82
2021/11/06 05:46:27;;;;;;;29.17;10.50;;;;;;;13.18;98.05;98226.22;5033535;28;20032;-81
2021/11/06 05:48:53;;;;;;;37.13;11.40;;;;;;;13.30;97.14;98229.97;5050017;28;20479;-80
2021/11/06 05:51:18;;;;;;;32.38;12.40;;;;;;;13.17;96.89;98219.09;5029288;28;20480;-81
2021/11/06 05:53:44;;;;;;;33.53;13.18;;;;;;;13.09;98.00;98242.91;5033540;28;20040;-80
2021/11/06 05:56:09;;;;;;;42.38;13.25;;;;;;;13.11;97.65;98240.97;5045675;28;20040;-80
2021/11/06 05:58:35;;;;;;;33.17;13.68;;;;;;;13.04;98.19;98256.56;5045663;28;20044;-81
2021/11/06 06:01:01;;;;;;;42.53;13.80;;;;;;;13.16;97.91;98264.88;5036236;28;20030;-80
2021/11/06 06:03:26;;;;;;;38.50;16.38;;;;;;;13.24;97.28;98267.94;5045431;28;20041;-80
2021/11/06 06:05:52;;;;;;;49.25;18.05;;;;;;;13.51;94.23;98259.06;5041490;28;20028;-80
2021/11/06 06:08:18;;;;;;;44.35;17.35;;;;;;;13.90;90.14;98257.50;5031061;28;20079;-80
2021/11/06 06:10:44;;;;;;;46.08;15.20;;;;;;;13.89;89.84;98279.97;5020707;28;20044;-79
2021/11/06 06:13:10;;;;;;;43.25;15.05;;;;;;;13.74;90.46;98276.44;5041376;28;20024;-81
2021/11/06 06:15:36;;;;;;;47.40;18.48;;;;;;;13.74;91.30;98289.03;5053646;28;20030;-80
2021/11/06 06:18:01;;;;;;;45.58;15.93;;;;;;;13.69;91.72;98283.91;5029472;28;20044;-80
2021/11/06 06:20:27;;;;;;;49.13;15.18;;;;;;;13.73;92.00;98287.28;5025560;28;20127;-81
2021/11/06 06:22:52;;;;;;;45.80;15.73;;;;;;;13.91;91.37;98302.25;5049763;28;20021;-80
2021/11/06 06:25:18;;;;;;;41.17;14.25;;;;;;;13.96;91.71;98309.09;5033411;28;20056;-76
2021/11/06 06:27:44;;;;;;;52.42;15.45;;;;;;;13.99;90.78;98302.66;5062115;28;20035;-81
2021/11/06 06:30:12;;;;;;;37.65;15.50;;;;;;;14.22;89.97;98318.19;5061826;28;20025;-81
2021/11/06 06:32:38;;;;;;;55.30;14.90;;;;;;;14.28;89.34;98328.53;5034213;28;20434;-80
2021/11/06 06:35:07;;;;;;;42.05;15.02;;;;;;;14.22;89.21;98315.50;5045559;28;20146;-81
2021/11/06 06:37:33;;;;;;;37.45;13.82;;;;;;;14.11;89.44;98301.88;5050667;28;20025;-80
2021/11/06 06:39:58;;;;;;;120.55;63.05;;;;;;;14.42;88.98;98330.41;5036450;28;20407;-80
2021/11/06 06:42:24;;;;;;;42.40;16.67;;;;;;;14.44;88.22;98342.78;5047574;28;20033;-81
2021/11/06 06:44:51;;;;;;;34.83;16.10;;;;;;;14.31;88.55;98324.78;5036460;28;20037;-78
2021/11/06 06:47:17;;;;;;;43.00;18.08;;;;;;;14.46;88.10;98345.38;5055744;28;20120;-80
2021/11/06 06:49:44;;;;;;;35.22;14.35;;;;;;;14.57;87.48;98346.41;5050548;28;20469;-75
2021/11/06 06:52:17;;;;;;;36.08;13.82;;;;;;;14.80;86.38;98350.28;5055011;28;20404;-77
2021/11/06 06:54:43;;;;;;;41.75;14.45;;;;;;;14.98;84.84;98361.69;5055998;28;20039;-76
2021/11/06 06:57:09;;;;;;;190.82;113.22;;;;;;;15.07;84.23;98366.47;5040707;28;20068;-82
2021/11/06 06:59:35;;;;;;;74.07;35.25;;;;;;;15.11;83.13;98359.88;5052927;28;20412;-83
2021/11/06 07:02:05;;;;;;;68.45;25.90;;;;;;;15.18;83.12;98369.28;5033949;28;20045;-85
2021/11/06 07:04:31;;;;;;;46.35;20.17;;;;;;;15.11;84.16;98360.75;5033708;28;20025;-84
2021/11/06 07:06:57;;;;;;;58.85;25.52;;;;;;;15.28;83.88;98354.22;5033806;28;20029;-83
2021/11/06 07:09:23;;;;;;;84.72;34.67;;;;;;;15.54;82.19;98357.84;5026993;28;20029;-85
2021/11/06 07:11:49;;;;;;;56.00;20.02;;;;;;;15.77;79.42;98353.56;5051188;28;20029;-85
2021/11/06 07:14:16;;;;;;;50.88;21.50;;;;;;;16.09;78.17;98373.75;5051515;28;20405;-84
2021/11/06 07:16:45;;;;;;;41.63;18.27;;;;;;;16.47;75.89;98363.75;5015776;28;20033;-85
2021/11/06 07:19:11;;;;;;;27.90;12.90;;;;;;;16.89;73.30;98370.56;5053861;28;20033;-84
2021/11/06 07:21:37;;;;;;;81.05;41.22;;;;;;;17.08;71.80;98375.47;5047292;28;20033;-85
2021/11/06 07:24:03;;;;;;;59.72;17.65;;;;;;;17.33;71.00;98375.34;5013705;28;20044;-83
2021/11/06 07:26:31;;;;;;;53.97;17.25;;;;;;;17.35;70.63;98367.97;5051161;28;20033;-84
2021/11/06 07:28:57;;;;;;;33.33;14.35;;;;;;;17.39;70.54;98353.25;5035802;28;20027;-85
2021/11/06 07:31:23;;;;;;;39.38;11.68;;;;;;;17.30;71.09;98365.63;5038443;28;20021;-83
2021/11/06 07:33:48;;;;;;;31.73;12.93;;;;;;;17.74;69.61;98369.50;5042618;28;20385;-83
2021/11/06 07:36:17;;;;;;;26.27;12.05;;;;;;;17.86;68.63;98366.72;5056152;28;20026;-83
2021/11/06 07:38:43;;;;;;;37.58;15.23;;;;;;;18.35;66.92;98354.69;5023846;28;20033;-82
2021/11/06 07:41:08;;;;;;;52.50;20.48;;;;;;;18.64;65.81;98352.38;5047743;28;20382;-75
2021/11/06 07:43:41;;;;;;;58.25;18.33;;;;;;;19.00;63.83;98343.91;5062109;28;20044;-76
2021/11/06 07:46:07;;;;;;;46.35;18.73;;;;;;;19.44;62.36;98348.34;5050126;28;20085;-75
2021/11/06 07:48:33;;;;;;;46.90;17.45;;;;;;;19.37;62.56;98345.25;5031468;28;20420;-76
2021/11/06 07:50:59;;;;;;;43.03;17.08;;;;;;;19.06;63.69;98342.53;5051712;28;20036;-76
2021/11/06 07:53:25;;;;;;;46.60;17.15;;;;;;;19.10;64.30;98336.75;5066780;28;20025;-76
2021/11/06 07:55:50;;;;;;;45.58;17.63;;;;;;;19.41;63.55;98345.91;5044030;28;20094;-76
2021/11/06 07:58:16;;;;;;;42.05;16.52;;;;;;;19.53;62.70;98338.56;5052579;28;20028;-75
2021/11/06 08:00:42;;;;;;;45.53;18.38;;;;;;;19.88;61.80;98339.94;5052066;28;20026;-75
2021/11/06 08:03:08;;;;;;;51.25;20.90;;;;;;;20.30;60.39;98340.75;5045497;28;20041;-75
2021/11/06 08:05:34;;;;;;;52.65;23.40;;;;;;;20.20;60.27;98348.00;5049077;28;20021;-76
2021/11/06 08:08:00;;;;;;;61.92;30.15;;;;;;;19.78;61.95;98343.59;5051186;28;20074;-76
2021/11/06 08:10:27;;;;;;;71.20;29.55;;;;;;;19.67;62.57;98362.66;5054058;28;20913;-75
2021/11/06 08:12:54;;;;;;;52.78;24.13;;;;;;;19.59;63.32;98355.19;5025029;28;20016;-76
2021/11/06 08:15:20;;;;;;;52.95;21.63;;;;;;;19.99;61.68;98360.75;5046649;28;20170;-76
2021/11/06 08:17:46;;;;;;;39.13;19.20;;;;;;;19.90;61.71;98370.53;5052456;28;20117;-76
2021/11/06 08:20:12;;;;;;;51.00;19.38;;;;;;;19.89;60.97;98386.97;5051464;28;20033;-76
2021/11/06 08:22:38;;;;;;;52.78;19.67;;;;;;;18.92;64.53;98392.47;5043284;28;20456;-75
2021/11/06 08:25:08;;;;;;;40.15;19.40;;;;;;;18.84;65.14;98384.97;5033861;28;20039;-75
2021/11/06 08:27:34;;;;;;;29.83;14.00;;;;;;;18.91;64.60;98380.78;5051605;28;20030;-75
2021/11/06 08:30:00;;;;;;;40.47;16.25;;;;;;;19.13;65.09;98379.00;5031181;28;20029;-75
2021/11/06 08:32:26;;;;;;;41.72;15.10;;;;;;;19.84;62.58;98384.63;5032801;28;20017;-75
2021/11/06 08:34:52;;;;;;;29.77;13.48;;;;;;;20.67;59.64;98397.31;5033017;28;20400;-76
2021/11/06 08:37:18;;;;;;;33.75;13.52;;;;;;;21.22;58.90;98385.03;5049724;28;20037;-75
2021/11/06 08:39:44;;;;;;;28.83;12.93;;;;;;;21.97;55.68;98386.06;5041323;28;20033;-75
2021/11/06 08:42:09;;;;;;;36.05;13.93;;;;;;;22.36;53.85;98377.84;5033736;28;20091;-74
2021/11/06 08:44:35;;;;;;;28.77;12.35;;;;;;;22.90;52.48;98387.97;5053836;28;20061;-75
2021/11/06 08:47:01;;;;;;;26.10;12.35;;;;;;;23.09;51.70;98394.19;5027877;28;20075;-75
2021/11/06 08:49:27;;;;;;;27.58;11.95;;;;;;;23.42;51.10;98391.84;5036315;28;20037;-76
2021/11/06 08:51:56;;;;;;;33.25;13.68;;;;;;;23.98;49.36;98395.13;5046149;28;20067;-75
2021/11/06 08:54:23;;;;;;;26.98;13.13;;;;;;;24.02;48.78;98399.28;5016250;28;20053;-74
2021/11/06 08:56:49;;;;;;;43.45;15.73;;;;;;;24.53;47.83;98389.41;5051570;28;20029;-75
2021/11/06 08:59:18;;;;;;;38.63;19.02;;;;;;;24.83;47.32;98402.59;5046493;28;20028;-75
2021/11/06 09:01:45;;;;;;;27.73;14.95;;;;;;;25.16;46.94;98409.94;5040567;28;20484;-75
2021/11/06 09:04:12;;;;;;;36.15;15.35;;;;;;;25.49;45.70;98394.50;5048788;28;20108;-76
2021/11/06 09:06:39;;;;;;;37.05;18.30;;;;;;;25.77;46.24;98398.66;5048911;28;20021;-75
2021/11/06 09:09:07;;;;;;;39.63;18.20;;;;;;;25.42;45.43;98398.91;5051426;28;20103;-74
2021/11/06 09:11:34;;;;;;;40.75;14.52;;;;;;;25.41;45.53;98412.78;5055668;28;20021;-75
2021/11/06 09:13:59;;;;;;;27.30;14.85;;;;;;;25.59;45.11;98408.06;5033738;28;20060;-75
2021/11/06 09:16:25;;;;;;;26.13;12.65;;;;;;;25.91;44.64;98394.38;5040882;28;20056;-75
2021/11/06 09:18:51;;;;;;;28.30;13.57;;;;;;;26.54;43.33;98388.22;5058832;28;20027;-74
2021/11/06 09:21:20;;;;;;;27.73;11.30;;;;;;;26.95;42.22;98391.72;5039293;28;20049;-75
2021/11/06 09:23:48;;;;;;;28.20;11.00;;;;;;;27.19;41.72;98381.50;5059462;28;20060;-75
2021/11/06 09:26:15;;;;;;;26.55;12.30;;;;;;;27.73;40.65;98389.78;5029139;28;20029;-76
2021/11/06 09:28:42;;;;;;;26.10;10.50;;;;;;;27.10;41.46;98382.53;5039198;28;20053;-74
2021/11/06 09:31:12;;;;;;;20.40;10.90;;;;;;;27.70;40.19;98370.91;5031399;28;20492;-76
2021/11/06 09:33:39;;;;;;;15.93;8.75;;;;;;;26.02;43.19;98380.34;5054074;28;20029;-75
2021/11/06 09:36:05;;;;;;;20.65;9.48;;;;;;;27.29;41.45;98382.13;5048499;28;20056;-74
2021/11/06 09:38:31;;;;;;;23.30;10.40;;;;;;;28.51;38.91;98369.22;5038626;28;20476;-75
2021/11/06 09:41:05;;;;;;;21.27;10.60;;;;;;;27.99;39.42;98365.53;5017970;28;20037;-76
2021/11/06 09:43:31;;;;;;;19.27;11.20;;;;;;;27.41;40.79;98380.66;5030922;28;20025;-77
2021/11/06 09:45:58;;;;;;;23.83;10.63;;;;;;;28.27;39.37;98383.19;5052138;28;20675;-78
2021/11/06 09:48:24;;;;;;;26.70;10.98;;;;;;;29.25;37.59;98378.38;5046290;28;20102;-75
2021/11/06 09:50:51;;;;;;;21.48;10.48;;;;;;;29.58;36.49;98373.25;5037169;28;20033;-77
2021/11/06 09:53:18;;;;;;;21.63;10.38;;;;;;;29.57;36.97;98386.19;5052438;28;20461;-77
2021/11/06 09:55:44;;;;;;;19.52;10.82;;;;;;;28.42;38.39;98378.59;5048256;28;20025;-76
2021/11/06 09:58:10;;;;;;;24.20;10.48;;;;;;;29.59;37.44;98386.84;5048555;28;20051;-77
2021/11/06 10:00:38;;;;;;;17.58;10.07;;;;;;;29.48;37.22;98376.31;5025023;28;20033;-80
2021/11/06 10:03:04;;;;;;;16.17;9.50;;;;;;;29.14;37.51;98365.03;5045009;28;20068;-76
2021/11/06 10:05:56;;;;;;;22.85;11.15;;;;;;;27.44;40.19;98374.84;5042830;28;20068;-76
2021/11/06 10:08:36;;;;;;;26.05;10.88;;;;;;;27.11;41.44;98373.28;5032318;28;20030;-76
2021/11/06 10:11:11;;;;;;;17.33;9.77;;;;;;;26.71;41.77;98371.50;5030429;28;20449;-74
2021/11/06 10:13:59;;;;;;;16.50;9.55;;;;;;;25.71;43.78;98377.41;5047998;28;20043;-76
2021/11/06 10:16:57;;;;;;;27.67;11.13;;;;;;;25.86;44.23;98372.97;5049248;28;20024;-75
2021/11/06 10:19:31;;;;;;;21.70;9.85;;;;;;;25.72;43.77;98346.22;5031112;28;20111;-76
2021/11/06 10:25:01;;;;;;;19.67;9.75;;;;;;;26.98;42.18;98351.00;5052519;28;20447;-77
2021/11/06 10:27:29;;;;;;;15.25;9.65;;;;;;;27.45;40.95;98343.56;5052432;28;20545;-75
2021/11/06 10:30:10;;;;;;;17.02;9.57;;;;;;;27.64;39.81;98324.88;5060010;28;20039;-75
2021/11/06 10:32:40;;;;;;;25.90;10.53;;;;;;;27.54;40.26;98336.13;5036111;28;20404;-75
2021/11/06 10:35:12;;;;;;;19.05;10.82;;;;;;;26.65;41.69;98343.91;5030010;28;20037;-76
2021/11/06 10:37:38;;;;;;;19.20;10.35;;;;;;;26.80;41.75;98344.91;5030561;28;20501;-79
2021/11/06 10:40:05;;;;;;;19.40;9.88;;;;;;;27.14;40.97;98337.19;5029000;28;20033;-78
2021/11/06 10:42:30;;;;;;;20.15;10.55;;;;;;;27.15;40.89;98324.31;5047436;28;20112;-79
2021/11/06 10:45:12;;;;;;;21.13;10.27;;;;;;;27.16;40.78;98331.53;5046033;28;20469;-79
2021/11/06 10:47:54;;;;;;;23.73;10.17;;;;;;;26.11;42.90;98335.44;5030499;28;20037;-79
2021/11/06 10:50:38;;;;;;;29.65;11.45;;;;;;;24.97;45.22;98349.97;5047093;28;20052;-80
2021/11/06 10:53:05;;;;;;;33.95;12.05;;;;;;;24.60;46.18;98352.16;5048049;28;20099;-79
2021/11/06 10:55:39;;;;;;;23.73;10.40;;;;;;;24.98;45.87;98353.56;5031509;28;20548;-79
2021/11/06 10:58:27;;;;;;;48.25;26.85;;;;;;;25.18;45.41;98357.75;5047737;28;20082;-79
2021/11/06 11:01:14;;;;;;;25.73;12.88;;;;;;;25.11;45.94;98349.31;5032013;28;20466;-80
2021/11/06 11:03:42;;;;;;;37.72;12.63;;;;;;;25.24;45.22;98337.91;5043306;28;20076;-80
2021/11/06 11:06:12;;;;;;;28.90;13.63;;;;;;;24.93;46.45;98351.31;5047882;28;20025;-78
2021/11/06 11:08:44;;;;;;;20.80;11.25;;;;;;;25.14;46.06;98351.72;5036255;28;20030;-78
2021/11/06 11:11:10;;;;;;;24.00;15.35;;;;;;;25.21;45.38;98351.94;5048481;28;20064;-78
2021/11/06 11:13:46;;;;;;;22.92;12.93;;;;;;;24.77;45.87;98348.47;5035957;28;20040;-79
2021/11/06 11:16:14;;;;;;;23.40;13.27;;;;;;;24.76;46.28;98336.66;5052447;28;20074;-79
2021/11/06 11:18:40;;;;;;;23.52;12.25;;;;;;;24.73;46.45;98336.16;5039570;28;20021;-79
2021/11/06 11:21:15;;;;;;;24.85;11.57;;;;;;;24.81;46.71;98349.91;5022014;28;20034;-79